sensor_id;sensor_type;location;lat;lon;timestamp;temperature;humidity
40434;DHT22;26146;51.114;5.654;2023-06-05T00:03:58;15.90;99.90
40434;DHT22;26146;51.114;5.654;2023-06-05T00:07:59;15.90;99.90
40434;DHT22;26146;51.114;5.654;2023-06-05T00:12:00;15.80;99.90
40434;DHT22;26146;51.114;5.654;2023-06-05T00:16:04;15.60;99.90
40434;DHT22;26146;51.114;5.654;2023-06-05T00:20:05;15.50;99.90
40434;DHT22;26146;51.114;5.654;2023-06-05T00:24:10;15.50;99.90
40434;DHT22;26146;51.114;5.654;2023-06-05T00:28:11;15.40;99.90
40434;DHT22;26146;51.114;5.654;2023-06-05T00:32:11;15.20;99.90
40434;DHT22;26146;51.114;5.654;2023-06-05T00:36:15;15.20;99.90
40434;DHT22;26146;51.114;5.654;2023-06-05T00:40:18;15.20;99.90
40434;DHT22;26146;51.114;5.654;2023-06-05T00:44:19;15.10;99.90
40434;DHT22;26146;51.114;5.654;2023-06-05T00:48:20;15.10;99.90
40434;DHT22;26146;51.114;5.654;2023-06-05T00:52:22;15.00;99.90
40434;DHT22;26146;51.114;5.654;2023-06-05T00:56:23;14.80;99.90
40434;DHT22;26146;51.114;5.654;2023-06-05T01:00:24;14.80;99.90
40434;DHT22;26146;51.114;5.654;2023-06-05T01:04:26;14.90;99.90
40434;DHT22;26146;51.114;5.654;2023-06-05T01:08:27;14.80;99.90
40434;DHT22;26146;51.114;5.654;2023-06-05T01:12:41;14.70;99.90
40434;DHT22;26146;51.114;5.654;2023-06-05T01:16:47;14.70;99.90
40434;DHT22;26146;51.114;5.654;2023-06-05T01:20:48;14.60;99.90
40434;DHT22;26146;51.114;5.654;2023-06-05T01:24:49;14.50;99.90
40434;DHT22;26146;51.114;5.654;2023-06-05T01:28:50;14.50;99.90
40434;DHT22;26146;51.114;5.654;2023-06-05T01:32:55;14.30;99.90
40434;DHT22;26146;51.114;5.654;2023-06-05T01:36:57;14.30;99.90
40434;DHT22;26146;51.114;5.654;2023-06-05T01:40:59;14.20;99.90
40434;DHT22;26146;51.114;5.654;2023-06-05T01:45:04;14.10;99.90
40434;DHT22;26146;51.114;5.654;2023-06-05T01:49:06;14.10;99.90
40434;DHT22;26146;51.114;5.654;2023-06-05T01:53:09;14.00;99.90
40434;DHT22;26146;51.114;5.654;2023-06-05T01:57:11;13.80;99.90
40434;DHT22;26146;51.114;5.654;2023-06-05T02:01:18;13.90;99.90
40434;DHT22;26146;51.114;5.654;2023-06-05T02:05:19;13.70;99.90
40434;DHT22;26146;51.114;5.654;2023-06-05T02:09:23;13.80;99.90
40434;DHT22;26146;51.114;5.654;2023-06-05T02:13:24;13.70;99.90
40434;DHT22;26146;51.114;5.654;2023-06-05T02:17:25;13.50;99.90
40434;DHT22;26146;51.114;5.654;2023-06-05T02:21:27;13.50;99.90
40434;DHT22;26146;51.114;5.654;2023-06-05T02:25:28;13.50;99.90
40434;DHT22;26146;51.114;5.654;2023-06-05T02:29:29;13.50;99.90
40434;DHT22;26146;51.114;5.654;2023-06-05T02:33:30;13.30;99.90
40434;DHT22;26146;51.114;5.654;2023-06-05T02:37:31;13.50;99.90
40434;DHT22;26146;51.114;5.654;2023-06-05T02:41:38;13.30;99.90
40434;DHT22;26146;51.114;5.654;2023-06-05T02:45:39;13.30;99.90
40434;DHT22;26146;51.114;5.654;2023-06-05T02:49:40;13.40;99.90
40434;DHT22;26146;51.114;5.654;2023-06-05T02:53:41;13.30;99.90
40434;DHT22;26146;51.114;5.654;2023-06-05T02:57:42;13.30;99.90
40434;DHT22;26146;51.114;5.654;2023-06-05T03:01:43;13.20;99.90
40434;DHT22;26146;51.114;5.654;2023-06-05T03:05:47;13.20;99.90
40434;DHT22;26146;51.114;5.654;2023-06-05T03:09:49;13.10;99.90
40434;DHT22;26146;51.114;5.654;2023-06-05T03:13:50;13.10;99.90
40434;DHT22;26146;51.114;5.654;2023-06-05T03:17:51;13.20;99.90
40434;DHT22;26146;51.114;5.654;2023-06-05T03:21:52;13.00;99.90
40434;DHT22;26146;51.114;5.654;2023-06-05T03:25:55;13.00;99.90
40434;DHT22;26146;51.114;5.654;2023-06-05T03:29:56;13.00;99.90
40434;DHT22;26146;51.114;5.654;2023-06-05T03:33:59;12.90;99.90
40434;DHT22;26146;51.114;5.654;2023-06-05T03:38:01;12.90;99.90
40434;DHT22;26146;51.114;5.654;2023-06-05T03:42:03;13.00;99.90
40434;DHT22;26146;51.114;5.654;2023-06-05T03:46:04;13.10;99.90
40434;DHT22;26146;51.114;5.654;2023-06-05T03:50:05;13.10;99.90
40434;DHT22;26146;51.114;5.654;2023-06-05T03:54:06;13.30;99.90
40434;DHT22;26146;51.114;5.654;2023-06-05T03:58:11;13.90;99.90
40434;DHT22;26146;51.114;5.654;2023-06-05T04:02:14;14.60;99.90
40434;DHT22;26146;51.114;5.654;2023-06-05T04:06:15;15.30;99.90
40434;DHT22;26146;51.114;5.654;2023-06-05T04:10:16;16.00;99.90
40434;DHT22;26146;51.114;5.654;2023-06-05T04:14:19;15.60;99.90
40434;DHT22;26146;51.114;5.654;2023-06-05T04:18:20;15.10;99.90
40434;DHT22;26146;51.114;5.654;2023-06-05T04:22:21;14.70;99.90
40434;DHT22;26146;51.114;5.654;2023-06-05T04:26:22;14.50;99.90
40434;DHT22;26146;51.114;5.654;2023-06-05T04:30:26;14.20;99.90
40434;DHT22;26146;51.114;5.654;2023-06-05T04:34:30;14.10;99.90
40434;DHT22;26146;51.114;5.654;2023-06-05T04:38:34;14.00;99.90
40434;DHT22;26146;51.114;5.654;2023-06-05T04:42:37;14.00;99.90
40434;DHT22;26146;51.114;5.654;2023-06-05T04:46:39;14.20;99.90
40434;DHT22;26146;51.114;5.654;2023-06-05T04:50:40;14.20;99.90
40434;DHT22;26146;51.114;5.654;2023-06-05T04:54:43;14.20;99.90
40434;DHT22;26146;51.114;5.654;2023-06-05T04:58:44;14.10;99.90
40434;DHT22;26146;51.114;5.654;2023-06-05T05:02:48;14.10;99.90
40434;DHT22;26146;51.114;5.654;2023-06-05T05:06:49;14.30;99.90
40434;DHT22;26146;51.114;5.654;2023-06-05T05:10:52;14.30;99.90
40434;DHT22;26146;51.114;5.654;2023-06-05T05:14:53;14.10;99.90
40434;DHT22;26146;51.114;5.654;2023-06-05T05:18:54;14.30;99.90
40434;DHT22;26146;51.114;5.654;2023-06-05T05:22:55;14.30;99.90
40434;DHT22;26146;51.114;5.654;2023-06-05T05:26:58;14.60;99.90
40434;DHT22;26146;51.114;5.654;2023-06-05T05:30:59;14.70;99.90
40434;DHT22;26146;51.114;5.654;2023-06-05T05:35:01;14.90;99.90
40434;DHT22;26146;51.114;5.654;2023-06-05T05:39:05;15.00;99.90
40434;DHT22;26146;51.114;5.654;2023-06-05T05:43:08;15.00;99.90
40434;DHT22;26146;51.114;5.654;2023-06-05T05:47:10;15.00;99.90
40434;DHT22;26146;51.114;5.654;2023-06-05T05:51:13;14.90;99.90
40434;DHT22;26146;51.114;5.654;2023-06-05T05:55:14;15.00;99.90
40434;DHT22;26146;51.114;5.654;2023-06-05T05:59:15;15.20;99.90
40434;DHT22;26146;51.114;5.654;2023-06-05T06:03:19;15.30;99.90
40434;DHT22;26146;51.114;5.654;2023-06-05T06:07:20;15.30;99.90
40434;DHT22;26146;51.114;5.654;2023-06-05T06:11:21;15.30;99.90
40434;DHT22;26146;51.114;5.654;2023-06-05T06:15:22;15.30;99.90
40434;DHT22;26146;51.114;5.654;2023-06-05T06:19:23;15.60;99.90
40434;DHT22;26146;51.114;5.654;2023-06-05T06:23:24;15.60;99.90
40434;DHT22;26146;51.114;5.654;2023-06-05T06:27:25;15.70;99.90
40434;DHT22;26146;51.114;5.654;2023-06-05T06:31:26;15.60;99.90
40434;DHT22;26146;51.114;5.654;2023-06-05T06:35:27;15.70;99.90
40434;DHT22;26146;51.114;5.654;2023-06-05T06:39:31;15.80;99.90
40434;DHT22;26146;51.114;5.654;2023-06-05T06:43:32;16.00;99.90
40434;DHT22;26146;51.114;5.654;2023-06-05T06:47:35;16.00;99.90
40434;DHT22;26146;51.114;5.654;2023-06-05T06:51:36;16.10;99.90
40434;DHT22;26146;51.114;5.654;2023-06-05T06:55:37;16.20;99.90
40434;DHT22;26146;51.114;5.654;2023-06-05T06:59:41;16.20;99.90
40434;DHT22;26146;51.114;5.654;2023-06-05T07:03:42;16.40;99.90
40434;DHT22;26146;51.114;5.654;2023-06-05T07:07:43;16.40;99.90
40434;DHT22;26146;51.114;5.654;2023-06-05T07:11:44;16.50;99.90
40434;DHT22;26146;51.114;5.654;2023-06-05T07:15:45;16.70;99.90
40434;DHT22;26146;51.114;5.654;2023-06-05T07:19:46;16.70;99.90
40434;DHT22;26146;51.114;5.654;2023-06-05T07:23:48;16.80;99.90
40434;DHT22;26146;51.114;5.654;2023-06-05T07:27:49;17.00;99.90
40434;DHT22;26146;51.114;5.654;2023-06-05T07:31:51;17.10;99.90
40434;DHT22;26146;51.114;5.654;2023-06-05T07:35:53;17.20;99.90
40434;DHT22;26146;51.114;5.654;2023-06-05T07:39:56;17.50;99.90
40434;DHT22;26146;51.114;5.654;2023-06-05T07:43:57;17.60;99.90
40434;DHT22;26146;51.114;5.654;2023-06-05T07:47:58;17.70;99.90
40434;DHT22;26146;51.114;5.654;2023-06-05T07:51:59;17.80;99.90
40434;DHT22;26146;51.114;5.654;2023-06-05T07:56:00;17.80;99.90
40434;DHT22;26146;51.114;5.654;2023-06-05T08:00:01;17.50;99.90
40434;DHT22;26146;51.114;5.654;2023-06-05T08:04:09;17.70;99.90
40434;DHT22;26146;51.114;5.654;2023-06-05T08:08:13;17.80;99.90
40434;DHT22;26146;51.114;5.654;2023-06-05T08:12:14;17.90;99.90
40434;DHT22;26146;51.114;5.654;2023-06-05T08:16:15;18.00;99.90
40434;DHT22;26146;51.114;5.654;2023-06-05T08:20:16;18.10;99.90
40434;DHT22;26146;51.114;5.654;2023-06-05T08:24:17;18.20;99.90
40434;DHT22;26146;51.114;5.654;2023-06-05T08:28:18;18.20;99.90
40434;DHT22;26146;51.114;5.654;2023-06-05T08:32:19;18.40;99.90
40434;DHT22;26146;51.114;5.654;2023-06-05T08:36:21;18.50;99.90
40434;DHT22;26146;51.114;5.654;2023-06-05T08:40:28;18.60;99.90
40434;DHT22;26146;51.114;5.654;2023-06-05T08:44:30;18.80;99.90
40434;DHT22;26146;51.114;5.654;2023-06-05T08:48:32;19.10;99.10
40434;DHT22;26146;51.114;5.654;2023-06-05T08:52:39;19.40;98.80
40434;DHT22;26146;51.114;5.654;2023-06-05T08:56:42;19.40;99.00
40434;DHT22;26146;51.114;5.654;2023-06-05T09:00:44;19.40;98.90
40434;DHT22;26146;51.114;5.654;2023-06-05T09:04:45;19.30;99.50
40434;DHT22;26146;51.114;5.654;2023-06-05T09:08:47;19.60;98.60
40434;DHT22;26146;51.114;5.654;2023-06-05T09:12:55;19.80;98.40
40434;DHT22;26146;51.114;5.654;2023-06-05T09:16:59;19.70;98.50
40434;DHT22;26146;51.114;5.654;2023-06-05T09:21:11;19.70;97.90
40434;DHT22;26146;51.114;5.654;2023-06-05T09:25:12;19.70;97.40
40434;DHT22;26146;51.114;5.654;2023-06-05T09:29:13;20.00;97.00
40434;DHT22;26146;51.114;5.654;2023-06-05T09:33:14;20.10;96.90
40434;DHT22;26146;51.114;5.654;2023-06-05T09:37:18;20.20;96.80
40434;DHT22;26146;51.114;5.654;2023-06-05T09:41:22;20.20;96.80
40434;DHT22;26146;51.114;5.654;2023-06-05T09:45:41;20.40;97.10
40434;DHT22;26146;51.114;5.654;2023-06-05T09:53:44;20.70;96.60
40434;DHT22;26146;51.114;5.654;2023-06-05T09:57:47;20.90;95.80
40434;DHT22;26146;51.114;5.654;2023-06-05T10:01:50;20.90;95.90
40434;DHT22;26146;51.114;5.654;2023-06-05T10:05:53;20.80;95.70
40434;DHT22;26146;51.114;5.654;2023-06-05T10:09:54;21.10;94.90
40434;DHT22;26146;51.114;5.654;2023-06-05T10:13:56;21.20;94.90
40434;DHT22;26146;51.114;5.654;2023-06-05T10:18:02;21.20;94.60
40434;DHT22;26146;51.114;5.654;2023-06-05T10:22:03;21.40;93.90
40434;DHT22;26146;51.114;5.654;2023-06-05T10:26:11;21.50;93.70
40434;DHT22;26146;51.114;5.654;2023-06-05T10:34:40;21.70;93.30
40434;DHT22;26146;51.114;5.654;2023-06-05T10:38:48;21.70;92.20
40434;DHT22;26146;51.114;5.654;2023-06-05T10:42:49;21.90;92.30
40434;DHT22;26146;51.114;5.654;2023-06-05T10:46:50;21.90;92.40
40434;DHT22;26146;51.114;5.654;2023-06-05T10:50:53;22.10;91.90
40434;DHT22;26146;51.114;5.654;2023-06-05T10:55:12;22.30;91.50
40434;DHT22;26146;51.114;5.654;2023-06-05T10:59:15;22.30;90.60
40434;DHT22;26146;51.114;5.654;2023-06-05T11:03:19;22.30;90.70
40434;DHT22;26146;51.114;5.654;2023-06-05T11:11:27;22.40;90.00
40434;DHT22;26146;51.114;5.654;2023-06-05T11:15:34;22.50;89.30
40434;DHT22;26146;51.114;5.654;2023-06-05T11:19:37;22.70;87.00
40434;DHT22;26146;51.114;5.654;2023-06-05T11:23:39;22.80;86.90
40434;DHT22;26146;51.114;5.654;2023-06-05T11:27:44;23.00;86.50
40434;DHT22;26146;51.114;5.654;2023-06-05T11:31:45;22.90;85.50
40434;DHT22;26146;51.114;5.654;2023-06-05T11:35:48;22.90;85.70
40434;DHT22;26146;51.114;5.654;2023-06-05T11:39:49;23.00;86.20
40434;DHT22;26146;51.114;5.654;2023-06-05T11:43:50;22.90;86.10
40434;DHT22;26146;51.114;5.654;2023-06-05T11:47:51;23.20;85.00
40434;DHT22;26146;51.114;5.654;2023-06-05T11:51:53;23.30;82.70
40434;DHT22;26146;51.114;5.654;2023-06-05T11:55:55;23.40;83.20
40434;DHT22;26146;51.114;5.654;2023-06-05T12:00:06;23.50;81.40
40434;DHT22;26146;51.114;5.654;2023-06-05T12:04:09;23.50;80.10
40434;DHT22;26146;51.114;5.654;2023-06-05T12:08:28;23.40;80.70
40434;DHT22;26146;51.114;5.654;2023-06-05T12:12:35;23.30;80.30
40434;DHT22;26146;51.114;5.654;2023-06-05T12:16:38;23.70;79.90
40434;DHT22;26146;51.114;5.654;2023-06-05T12:20:39;23.80;78.40
40434;DHT22;26146;51.114;5.654;2023-06-05T12:24:42;23.70;78.40
40434;DHT22;26146;51.114;5.654;2023-06-05T12:28:45;23.70;77.80
40434;DHT22;26146;51.114;5.654;2023-06-05T12:32:47;23.90;78.10
40434;DHT22;26146;51.114;5.654;2023-06-05T12:36:49;23.90;77.80
40434;DHT22;26146;51.114;5.654;2023-06-05T12:40:51;24.10;76.20
40434;DHT22;26146;51.114;5.654;2023-06-05T12:44:54;24.00;75.60
40434;DHT22;26146;51.114;5.654;2023-06-05T12:48:57;24.10;73.50
40434;DHT22;26146;51.114;5.654;2023-06-05T12:53:01;24.20;73.70
40434;DHT22;26146;51.114;5.654;2023-06-05T12:57:03;24.30;73.40
40434;DHT22;26146;51.114;5.654;2023-06-05T13:01:08;24.40;74.70
40434;DHT22;26146;51.114;5.654;2023-06-05T13:05:14;24.40;73.80
40434;DHT22;26146;51.114;5.654;2023-06-05T13:09:17;24.20;73.50
40434;DHT22;26146;51.114;5.654;2023-06-05T13:13:18;24.30;73.10
40434;DHT22;26146;51.114;5.654;2023-06-05T13:17:23;24.30;74.20
40434;DHT22;26146;51.114;5.654;2023-06-05T13:21:26;24.60;72.80
40434;DHT22;26146;51.114;5.654;2023-06-05T13:25:29;24.70;72.40
40434;DHT22;26146;51.114;5.654;2023-06-05T13:29:32;24.50;73.40
40434;DHT22;26146;51.114;5.654;2023-06-05T13:33:36;24.40;72.30
40434;DHT22;26146;51.114;5.654;2023-06-05T13:37:39;24.50;72.90
40434;DHT22;26146;51.114;5.654;2023-06-05T13:41:41;24.70;72.30
40434;DHT22;26146;51.114;5.654;2023-06-05T13:45:44;24.90;71.60
40434;DHT22;26146;51.114;5.654;2023-06-05T13:49:45;24.90;71.90
40434;DHT22;26146;51.114;5.654;2023-06-05T13:53:46;25.00;70.50
40434;DHT22;26146;51.114;5.654;2023-06-05T13:57:49;24.90;69.50
40434;DHT22;26146;51.114;5.654;2023-06-05T14:01:50;24.80;69.90
40434;DHT22;26146;51.114;5.654;2023-06-05T14:05:54;24.80;70.30
40434;DHT22;26146;51.114;5.654;2023-06-05T14:09:54;24.90;69.80
40434;DHT22;26146;51.114;5.654;2023-06-05T14:13:56;25.00;70.10
40434;DHT22;26146;51.114;5.654;2023-06-05T14:18:06;24.80;70.20
40434;DHT22;26146;51.114;5.654;2023-06-05T14:22:07;25.10;69.10
40434;DHT22;26146;51.114;5.654;2023-06-05T14:26:08;24.90;67.50
40434;DHT22;26146;51.114;5.654;2023-06-05T14:30:14;25.00;70.20
40434;DHT22;26146;51.114;5.654;2023-06-05T14:34:15;25.30;69.00
40434;DHT22;26146;51.114;5.654;2023-06-05T14:38:16;25.30;68.00
40434;DHT22;26146;51.114;5.654;2023-06-05T14:42:17;25.20;68.30
40434;DHT22;26146;51.114;5.654;2023-06-05T14:46:22;25.30;69.20
40434;DHT22;26146;51.114;5.654;2023-06-05T14:50:23;25.30;69.70
40434;DHT22;26146;51.114;5.654;2023-06-05T14:54:24;25.10;69.00
40434;DHT22;26146;51.114;5.654;2023-06-05T14:58:28;25.10;70.10
40434;DHT22;26146;51.114;5.654;2023-06-05T15:02:29;25.00;70.30
40434;DHT22;26146;51.114;5.654;2023-06-05T15:06:29;24.90;69.80
40434;DHT22;26146;51.114;5.654;2023-06-05T15:10:30;25.10;68.90
40434;DHT22;26146;51.114;5.654;2023-06-05T15:14:31;25.10;69.30
40434;DHT22;26146;51.114;5.654;2023-06-05T15:18:34;25.00;68.80
40434;DHT22;26146;51.114;5.654;2023-06-05T15:22:38;25.00;69.20
40434;DHT22;26146;51.114;5.654;2023-06-05T15:26:39;25.10;68.10
40434;DHT22;26146;51.114;5.654;2023-06-05T15:30:43;25.20;67.10
40434;DHT22;26146;51.114;5.654;2023-06-05T15:34:44;25.20;66.30
40434;DHT22;26146;51.114;5.654;2023-06-05T15:38:51;25.50;67.60
40434;DHT22;26146;51.114;5.654;2023-06-05T15:43:07;25.40;67.40
40434;DHT22;26146;51.114;5.654;2023-06-05T15:47:13;25.40;67.40
40434;DHT22;26146;51.114;5.654;2023-06-05T15:51:16;25.40;66.60
40434;DHT22;26146;51.114;5.654;2023-06-05T15:55:17;25.40;68.70
40434;DHT22;26146;51.114;5.654;2023-06-05T15:59:21;25.40;68.60
40434;DHT22;26146;51.114;5.654;2023-06-05T16:03:24;25.20;68.10
40434;DHT22;26146;51.114;5.654;2023-06-05T16:07:25;25.20;68.60
40434;DHT22;26146;51.114;5.654;2023-06-05T16:11:28;25.30;68.50
40434;DHT22;26146;51.114;5.654;2023-06-05T16:15:29;25.10;68.60
40434;DHT22;26146;51.114;5.654;2023-06-05T16:19:33;25.20;68.60
40434;DHT22;26146;51.114;5.654;2023-06-05T16:23:36;25.10;68.00
40434;DHT22;26146;51.114;5.654;2023-06-05T16:27:37;25.20;67.40
40434;DHT22;26146;51.114;5.654;2023-06-05T16:31:38;25.10;68.50
40434;DHT22;26146;51.114;5.654;2023-06-05T16:35:42;25.00;69.90
40434;DHT22;26146;51.114;5.654;2023-06-05T16:39:45;25.00;68.80
40434;DHT22;26146;51.114;5.654;2023-06-05T16:43:50;25.10;68.60
40434;DHT22;26146;51.114;5.654;2023-06-05T16:47:53;25.00;69.40
40434;DHT22;26146;51.114;5.654;2023-06-05T16:51:56;25.20;69.50
40434;DHT22;26146;51.114;5.654;2023-06-05T16:55:57;25.00;69.50
40434;DHT22;26146;51.114;5.654;2023-06-05T17:00:00;25.00;70.20
40434;DHT22;26146;51.114;5.654;2023-06-05T17:04:08;24.90;69.70
40434;DHT22;26146;51.114;5.654;2023-06-05T17:08:09;24.80;70.00
40434;DHT22;26146;51.114;5.654;2023-06-05T17:12:12;24.70;70.70
40434;DHT22;26146;51.114;5.654;2023-06-05T17:16:16;24.60;71.00
40434;DHT22;26146;51.114;5.654;2023-06-05T17:20:17;24.70;71.20
40434;DHT22;26146;51.114;5.654;2023-06-05T17:24:20;24.60;71.70
40434;DHT22;26146;51.114;5.654;2023-06-05T17:28:25;24.60;70.90
40434;DHT22;26146;51.114;5.654;2023-06-05T17:32:25;24.70;71.10
40434;DHT22;26146;51.114;5.654;2023-06-05T17:36:26;24.50;71.00
40434;DHT22;26146;51.114;5.654;2023-06-05T17:40:31;24.50;71.40
40434;DHT22;26146;51.114;5.654;2023-06-05T17:44:33;24.40;71.60
40434;DHT22;26146;51.114;5.654;2023-06-05T17:48:35;24.30;72.20
40434;DHT22;26146;51.114;5.654;2023-06-05T17:52:36;24.40;73.10
40434;DHT22;26146;51.114;5.654;2023-06-05T17:56:37;24.30;72.30
40434;DHT22;26146;51.114;5.654;2023-06-05T18:00:38;24.20;72.70
40434;DHT22;26146;51.114;5.654;2023-06-05T18:04:39;24.20;73.40
40434;DHT22;26146;51.114;5.654;2023-06-05T18:08:40;24.00;73.50
40434;DHT22;26146;51.114;5.654;2023-06-05T18:12:41;24.00;73.80
40434;DHT22;26146;51.114;5.654;2023-06-05T18:16:42;23.90;74.40
40434;DHT22;26146;51.114;5.654;2023-06-05T18:20:43;24.00;74.70
40434;DHT22;26146;51.114;5.654;2023-06-05T18:24:44;23.80;74.80
40434;DHT22;26146;51.114;5.654;2023-06-05T18:28:45;23.70;75.30
40434;DHT22;26146;51.114;5.654;2023-06-05T18:32:46;23.60;75.70
40434;DHT22;26146;51.114;5.654;2023-06-05T18:36:49;23.60;75.50
40434;DHT22;26146;51.114;5.654;2023-06-05T18:40:50;23.50;75.90
40434;DHT22;26146;51.114;5.654;2023-06-05T18:44:51;23.50;76.40
40434;DHT22;26146;51.114;5.654;2023-06-05T18:48:52;23.60;76.00
40434;DHT22;26146;51.114;5.654;2023-06-05T18:52:53;23.40;76.70
40434;DHT22;26146;51.114;5.654;2023-06-05T18:56:54;23.20;77.40
40434;DHT22;26146;51.114;5.654;2023-06-05T19:00:55;23.20;77.50
40434;DHT22;26146;51.114;5.654;2023-06-05T19:04:56;23.20;77.50
40434;DHT22;26146;51.114;5.654;2023-06-05T19:08:57;23.10;78.10
40434;DHT22;26146;51.114;5.654;2023-06-05T19:12:58;23.00;78.30
40434;DHT22;26146;51.114;5.654;2023-06-05T19:17:01;22.80;78.50
40434;DHT22;26146;51.114;5.654;2023-06-05T19:21:02;22.70;79.20
40434;DHT22;26146;51.114;5.654;2023-06-05T19:25:07;22.60;79.40
40434;DHT22;26146;51.114;5.654;2023-06-05T19:29:08;22.50;80.00
40434;DHT22;26146;51.114;5.654;2023-06-05T19:33:11;22.30;81.40
40434;DHT22;26146;51.114;5.654;2023-06-05T19:37:17;22.20;82.00
40434;DHT22;26146;51.114;5.654;2023-06-05T19:41:18;21.80;88.30
40434;DHT22;26146;51.114;5.654;2023-06-05T19:45:21;21.50;90.60
40434;DHT22;26146;51.114;5.654;2023-06-05T19:49:23;21.20;92.10
40434;DHT22;26146;51.114;5.654;2023-06-05T19:53:26;21.10;93.10
40434;DHT22;26146;51.114;5.654;2023-06-05T19:57:27;20.90;94.10
40434;DHT22;26146;51.114;5.654;2023-06-05T20:01:28;20.50;95.40
40434;DHT22;26146;51.114;5.654;2023-06-05T20:05:29;20.40;96.00
40434;DHT22;26146;51.114;5.654;2023-06-05T20:09:31;20.40;96.60
40434;DHT22;26146;51.114;5.654;2023-06-05T20:13:32;20.20;97.30
40434;DHT22;26146;51.114;5.654;2023-06-05T20:17:33;20.10;97.80
40434;DHT22;26146;51.114;5.654;2023-06-05T20:21:34;19.90;98.40
40434;DHT22;26146;51.114;5.654;2023-06-05T20:25:37;19.80;98.80
40434;DHT22;26146;51.114;5.654;2023-06-05T20:29:38;19.60;99.40
40434;DHT22;26146;51.114;5.654;2023-06-05T20:33:39;19.50;99.90
40434;DHT22;26146;51.114;5.654;2023-06-05T20:37:40;19.40;99.90
40434;DHT22;26146;51.114;5.654;2023-06-05T20:41:45;19.20;99.90
40434;DHT22;26146;51.114;5.654;2023-06-05T20:45:52;19.10;99.90
40434;DHT22;26146;51.114;5.654;2023-06-05T20:49:54;19.10;99.90
40434;DHT22;26146;51.114;5.654;2023-06-05T20:53:58;18.90;99.90
40434;DHT22;26146;51.114;5.654;2023-06-05T20:57:59;18.90;99.90
40434;DHT22;26146;51.114;5.654;2023-06-05T21:02:00;18.70;99.90
40434;DHT22;26146;51.114;5.654;2023-06-05T21:06:01;18.70;99.90
40434;DHT22;26146;51.114;5.654;2023-06-05T21:10:02;18.50;99.90
40434;DHT22;26146;51.114;5.654;2023-06-05T21:14:03;18.30;99.90
40434;DHT22;26146;51.114;5.654;2023-06-05T21:18:04;18.30;99.90
40434;DHT22;26146;51.114;5.654;2023-06-05T21:22:05;18.20;99.90
40434;DHT22;26146;51.114;5.654;2023-06-05T21:26:06;18.20;99.90
40434;DHT22;26146;51.114;5.654;2023-06-05T21:30:07;18.10;99.90
40434;DHT22;26146;51.114;5.654;2023-06-05T21:34:09;18.10;99.90
40434;DHT22;26146;51.114;5.654;2023-06-05T21:38:10;18.00;99.90
40434;DHT22;26146;51.114;5.654;2023-06-05T21:42:11;17.80;99.90
40434;DHT22;26146;51.114;5.654;2023-06-05T21:46:15;17.90;99.90
40434;DHT22;26146;51.114;5.654;2023-06-05T21:50:16;17.80;99.90
40434;DHT22;26146;51.114;5.654;2023-06-05T21:54:17;17.70;99.90
40434;DHT22;26146;51.114;5.654;2023-06-05T21:58:17;17.50;99.90
40434;DHT22;26146;51.114;5.654;2023-06-05T22:02:18;17.40;99.90
40434;DHT22;26146;51.114;5.654;2023-06-05T22:06:20;17.40;99.90
40434;DHT22;26146;51.114;5.654;2023-06-05T22:10:21;17.40;99.90
40434;DHT22;26146;51.114;5.654;2023-06-05T22:14:22;17.30;99.90
40434;DHT22;26146;51.114;5.654;2023-06-05T22:18:31;17.10;99.90
40434;DHT22;26146;51.114;5.654;2023-06-05T22:22:32;17.00;99.90
40434;DHT22;26146;51.114;5.654;2023-06-05T22:26:34;16.90;99.90
40434;DHT22;26146;51.114;5.654;2023-06-05T22:30:35;16.90;99.90
40434;DHT22;26146;51.114;5.654;2023-06-05T22:34:38;16.90;99.90
40434;DHT22;26146;51.114;5.654;2023-06-05T22:38:40;16.80;99.90
40434;DHT22;26146;51.114;5.654;2023-06-05T22:42:42;16.70;99.90
40434;DHT22;26146;51.114;5.654;2023-06-05T22:46:43;16.60;99.90
40434;DHT22;26146;51.114;5.654;2023-06-05T22:50:45;16.60;99.90
40434;DHT22;26146;51.114;5.654;2023-06-05T22:54:48;16.50;99.90
40434;DHT22;26146;51.114;5.654;2023-06-05T22:58:49;16.50;99.90
40434;DHT22;26146;51.114;5.654;2023-06-05T23:02:52;16.40;99.90
40434;DHT22;26146;51.114;5.654;2023-06-05T23:06:53;16.40;99.90
40434;DHT22;26146;51.114;5.654;2023-06-05T23:10:54;16.40;99.90
40434;DHT22;26146;51.114;5.654;2023-06-05T23:14:56;16.20;99.90
40434;DHT22;26146;51.114;5.654;2023-06-05T23:18:58;16.00;99.90
40434;DHT22;26146;51.114;5.654;2023-06-05T23:22:59;16.00;99.90
40434;DHT22;26146;51.114;5.654;2023-06-05T23:27:00;16.00;99.90
40434;DHT22;26146;51.114;5.654;2023-06-05T23:31:01;16.00;99.90
40434;DHT22;26146;51.114;5.654;2023-06-05T23:35:02;15.80;99.90
40434;DHT22;26146;51.114;5.654;2023-06-05T23:39:06;15.80;99.90
40434;DHT22;26146;51.114;5.654;2023-06-05T23:43:08;15.70;99.90
40434;DHT22;26146;51.114;5.654;2023-06-05T23:47:09;15.60;99.90
40434;DHT22;26146;51.114;5.654;2023-06-05T23:51:10;15.60;99.90
40434;DHT22;26146;51.114;5.654;2023-06-05T23:55:11;15.60;99.90
40434;DHT22;26146;51.114;5.654;2023-06-05T23:59:14;15.60;99.90
